Flight Track Log - Related Links

Times and Time Zones

All times are in EST time to prevent confusion due to time zone crossing. See the UCA3596 flight status page for this flight to view local times or setup timezone preferences in your user account.

Time Position Orientation Groundspeed Altitude Reporting Facility
EST Latitude Longitude Course Direction KTS MPH feet Rate Location/Type
Fri 03:07:53 PM 42.1561 -75.9964 219° Southwest 136 157 3,600  Level New York Center
Fri 03:08:53 PM 42.1233 -76.0328 219° Southwest 147 169 5,000 1,350 Climbing New York Center
Fri 03:09:53 PM 42.0861 -76.0719 218° Southwest 157 181 6,300 1,400 Climbing New York Center
Fri 03:10:53 PM 42.0672 -76.1233 244° Southwest 157 181 7,800 1,550 Climbing New York Center
Fri 03:11:53 PM 42.0419 -76.1717 235° Southwest 157 181 9,400 1,500 Climbing New York Center
Fri 03:12:53 PM 42.0211 -76.2175 239° Southwest 157 181 10,800 1,300 Climbing New York Center
Fri 03:13:53 PM 41.9964 -76.2628 234° Southwest 157 181 12,000 1,250 Climbing New York Center
Fri 03:14:53 PM 41.9450 -76.2892 201° Southwest 175 201 13,300 1,150 Climbing New York Center
Fri 03:15:53 PM 41.8981 -76.3158 203° Southwest 190 219 14,300 950 Climbing New York Center
Fri 03:16:53 PM 41.8467 -76.3450 203° Southwest 201 231 15,200 850 Climbing New York Center
Fri 03:17:53 PM 41.7933 -76.3711 200° South 201 231 16,000 450 Climbing New York Center
Fri 03:18:53 PM 41.7381 -76.3972 199° South 217 250 16,100 50 Climbing New York Center
Fri 03:19:53 PM 41.6675 -76.4356 202° Southwest 244 281 16,100  Level New York Center
Fri 03:20:53 PM 41.6056 -76.4664 200° South 249 287 16,100  Level New York Center
Fri 03:21:53 PM 41.5414 -76.4997 201° Southwest 249 287 16,100  Level New York Center
Fri 03:22:53 PM 41.4839 -76.5281 200° South 249 287 16,100  Level New York Center
Fri 03:23:53 PM 41.4133 -76.5636 201° Southwest 249 287 16,100 -50 Level New York Center
Fri 03:24:53 PM 41.3514 -76.5969 202° Southwest 249 287 16,000  Descending New York Center
Fri 03:25:53 PM 41.2872 -76.6300 201° Southwest 249 287 16,100 50 Climbing New York Center
Fri 03:26:53 PM 41.2297 -76.6581 200° South 249 287 16,100  Level New York Center
Fri 03:27:53 PM 41.1675 -76.6942 204° Southwest 249 287 16,100 -50 Level New York Center
Fri 03:28:53 PM 41.1056 -76.7244 200° South 249 287 16,000  Descending New York Center
Fri 03:29:53 PM 41.0433 -76.7575 202° Southwest 249 287 16,100  Climbing New York Center
Fri 03:30:53 PM 40.9792 -76.7906 201° Southwest 249 287 16,000  Descending New York Center
Fri 03:31:53 PM 40.9108 -76.8256 201° Southwest 244 281 16,100 50 Climbing New York Center
Fri 03:32:53 PM 40.8467 -76.8556 199° South 239 275 16,100  Level New York Center
Fri 03:33:53 PM 40.7825 -76.8883 201° Southwest 245 282 16,100  Level New York Center
Fri 03:34:53 PM 40.7147 -76.9094 193° South 250 288 16,100  Level New York Center
Fri 03:35:53 PM 40.6489 -76.9311 194° South 250 288 16,100 -50 Level New York Center
Fri 03:36:53 PM 40.5833 -76.9497 192° South 244 281 16,000 -50 Descending New York Center
Fri 03:37:53 PM 40.5156 -76.9711 193° South 244 281 16,000  Level New York Center
Fri 03:38:53 PM 40.4500 -76.9897 192° South 244 281 16,000  Level New York Center
Fri 03:39:53 PM 40.3925 -77.0117 196° South 244 281 16,000  Level New York Center
Fri 03:40:53 PM 40.3206 -77.0297 191° South 250 288 16,000 -414 Level New York Center
Fri 03:43:16 PM 40.1667 -77.0833 195° South 245 282 14,600 -591 Descending Potomac TRACON
Fri 03:44:16 PM 40.1000 -77.1000 191° South 242 278 14,000 -600 Descending Potomac TRACON
Fri 03:45:16 PM 40.0333 -77.1167 191° South 243 280 13,400 -684 Descending Potomac TRACON
Fri 03:46:10 PM 39.9833 -77.1500 207° Southwest 240 276 12,700 -842 Descending Potomac TRACON
Fri 03:47:10 PM 39.9167 -77.1833 201° Southwest 242 278 11,800 -900 Descending Potomac TRACON
Fri 03:48:10 PM 39.8500 -77.2167 201° Southwest 238 274 10,900 -905 Descending Potomac TRACON
Fri 03:49:16 PM 39.7833 -77.2500 201° Southwest 238 274 9,900 -905 Descending Potomac TRACON
Fri 03:50:16 PM 39.7333 -77.3000 218° Southwest 233 268 9,000 -835 Descending Potomac TRACON
Fri 03:51:11 PM 39.6833 -77.3333 207° Southwest 233 268 8,300 -895 Descending Potomac TRACON
Fri 03:52:10 PM 39.6333 -77.3833 218° Southwest 237 273 7,300 -1,000 Descending Potomac TRACON
Fri 03:53:05 PM 39.5833 -77.4333 218° Southwest 228 262 6,400 -1,252 Descending Potomac TRACON
Fri 03:54:05 PM 39.5167 -77.4333 180° South 234 269 4,900 -1,200 Descending Potomac TRACON
Fri 03:55:10 PM 39.4500 -77.4333 180° South 205 236 3,900 -476 Descending Potomac TRACON
Fri 03:56:11 PM 39.4000 -77.4333 180° South 213 245 3,900 -99 Level Potomac TRACON
Fri 03:57:11 PM 39.3333 -77.4333 180° South 215 247 3,700 -450 Descending Potomac TRACON
Fri 03:58:11 PM 39.2833 -77.4333 180° South 209 241 3,000 -350 Descending Potomac TRACON
Fri 03:59:11 PM 39.2167 -77.4333 180° South 180 207 3,000  Level Potomac TRACON
Fri 04:00:11 PM 39.1833 -77.4333 180° South 174 200 3,000  Level Potomac TRACON
Fri 04:01:11 PM 39.1333 -77.4333 180° South 171 197 3,000 -50 Level Potomac TRACON
Fri 04:02:11 PM 39.0833 -77.4333 180° South 169 194 2,900 -550 Descending Potomac TRACON
Fri 04:03:11 PM 39.0333 -77.4333 180° South 176 203 1,900 -947 Descending Potomac TRACON
Fri 04:04:05 PM 39.0000 -77.4333 180° South 158 182 1,100 -889 Descending Potomac TRACON
Fri 04:06:00 PM 38.9474 -77.4599 180° South  Level Estimated
Fri 04:13:00 PM 38.9474 -77.4599 349° North  Level Estimated
Fri 04:14:00 PM 38.9474 -77.4599 349° North  Level Estimated

Login

Don't have an account? Register now (free) for customized features, flight alerts, and more!